Time;durP1;ratioP1;P1;durP2;ratioP2;P2;SDS_P1;SDS_P2;PMS_P1;PMS_P2;Temp;Humidity;BMP_temperature;BMP_pressure;BME280_temperature;BME280_humidity;BME280_pressure;Samples;Min_cycle;Max_cycle;Signal;HPM_P1;HPM_P2
2023/08/25 00:04:10;;;;;;;9.50;5.50;;;;;;;19.16;84.57;100194.77;215658;1288;138667;-84
2023/08/25 00:09:11;;;;;;;14.90;5.70;;;;;;;19.16;83.98;100197.45;215465;1287;142735;-84
2023/08/25 00:14:11;;;;;;;9.50;4.80;;;;;;;19.15;83.82;100186.50;216079;1289;97852;-84
2023/08/25 00:19:14;;;;;;;16.30;5.20;;;;;;;19.14;83.74;100175.75;215219;1288;142025;-84
2023/08/25 00:24:15;;;;;;;10.60;5.70;;;;;;;19.14;83.76;100176.14;215890;1291;138923;-84
2023/08/25 00:29:16;;;;;;;11.40;5.90;;;;;;;19.15;83.93;100177.73;215542;1289;142072;-84
2023/08/25 00:34:16;;;;;;;12.20;6.40;;;;;;;19.15;83.95;100180.74;215785;1286;141173;-84
2023/08/25 00:39:17;;;;;;;11.50;6.00;;;;;;;19.16;83.81;100161.27;215485;1285;142892;-84
2023/08/25 00:44:17;;;;;;;17.00;6.40;;;;;;;19.16;84.11;100143.19;215876;1288;97699;-83
2023/08/25 00:49:21;;;;;;;11.50;5.90;;;;;;;19.17;84.33;100142.03;215230;1287;140464;-84
2023/08/25 00:54:28;;;;;;;15.50;6.30;;;;;;;19.18;84.19;100138.50;215883;1289;140137;-85
2023/08/25 00:59:45;;;;;;;;;;;;;;;;;;;;;
2023/08/25 01:04:54;;;;;;;13.50;6.00;;;;;;;19.22;84.58;100133.95;215971;1286;97819;-84
2023/08/25 01:09:54;;;;;;;13.50;5.60;;;;;;;19.24;84.53;100137.96;214991;1287;141199;-85
2023/08/25 01:15:07;;;;;;;11.20;6.30;;;;;;;19.25;84.55;100137.61;215893;1285;98488;-84
2023/08/25 01:20:09;;;;;;;12.40;6.60;;;;;;;19.27;84.28;100134.27;215524;1285;142087;-85
2023/08/25 01:25:22;;;;;;;13.10;6.00;;;;;;;19.28;84.19;100126.10;215878;1290;139535;-85
2023/08/25 01:30:24;;;;;;;10.80;5.70;;;;;;;19.30;83.93;100125.82;215599;1287;141868;-85
2023/08/25 01:36:00;;;;;;;15.60;7.00;;;;;;;19.31;83.92;100119.66;216470;1289;140190;-84
2023/08/25 01:41:04;;;;;;;13.60;6.50;;;;;;;19.33;83.59;100113.14;215339;1290;141768;-84
2023/08/25 01:46:08;;;;;;;12.40;5.50;;;;;;;19.35;83.52;100105.59;216037;1286;138884;-83
2023/08/25 01:51:13;;;;;;;12.00;5.80;;;;;;;19.37;83.26;100099.63;215409;1287;143030;-83
2023/08/25 01:56:14;;;;;;;12.30;6.90;;;;;;;19.39;83.34;100102.44;215873;1288;96411;-84
2023/08/25 02:01:15;;;;;;;9.90;6.00;;;;;;;19.40;83.11;100093.80;215441;1288;140286;-84
2023/08/25 02:06:15;;;;;;;12.40;7.00;;;;;;;19.41;83.21;100092.63;215778;1287;140723;-85
2023/08/25 02:11:16;;;;;;;12.30;7.20;;;;;;;19.42;83.43;100089.58;215526;1286;141502;-85
2023/08/25 02:16:17;;;;;;;11.10;6.10;;;;;;;19.43;83.35;100087.15;216417;1286;139197;-83
2023/08/25 02:21:17;;;;;;;14.80;7.30;;;;;;;19.44;83.41;100080.34;215256;1289;141491;-84
2023/08/25 02:26:17;;;;;;;14.00;7.50;;;;;;;19.45;83.85;100075.60;215799;1288;97824;-84
2023/08/25 02:31:18;;;;;;;11.80;7.30;;;;;;;19.45;84.42;100070.11;215387;1286;141298;-83
2023/08/25 02:36:18;;;;;;;12.90;7.60;;;;;;;19.45;84.96;100064.61;215745;1286;138933;-84
2023/08/25 02:41:19;;;;;;;15.60;6.90;;;;;;;19.44;85.25;100060.80;215237;1289;140664;-84
2023/08/25 02:46:19;;;;;;;13.00;7.30;;;;;;;19.43;85.77;100058.13;215761;1286;139068;-84
2023/08/25 02:51:19;;;;;;;18.40;7.70;;;;;;;19.40;86.78;100056.23;215480;1286;143299;-83
2023/08/25 02:56:20;;;;;;;13.30;7.10;;;;;;;19.38;87.63;100056.06;215829;1287;97914;-84
2023/08/25 03:01:25;;;;;;;14.60;7.80;;;;;;;19.33;88.86;100053.80;215334;1288;139995;-85
2023/08/25 03:06:30;;;;;;;13.10;7.40;;;;;;;19.26;91.39;100047.02;215815;1287;139030;-89
2023/08/25 03:11:30;;;;;;;14.90;8.90;;;;;;;19.17;93.41;100040.63;215606;1288;140838;-87
2023/08/25 03:16:31;;;;;;;15.30;8.50;;;;;;;19.11;94.53;100041.92;215615;1286;138883;-90
2023/08/25 03:21:33;;;;;;;14.50;8.40;;;;;;;19.05;95.65;100038.38;215534;1286;140891;-89
2023/08/25 03:26:34;;;;;;;11.50;7.90;;;;;;;18.98;96.95;100024.70;216056;1290;97929;-90
2023/08/25 03:31:38;;;;;;;13.90;9.00;;;;;;;18.93;97.60;100020.71;215529;1285;140338;-91
2023/08/25 03:36:39;;;;;;;16.10;9.10;;;;;;;18.90;98.30;100007.27;216049;1285;138970;-92
2023/08/25 03:41:44;;;;;;;18.70;10.20;;;;;;;18.87;98.47;100000.27;215468;1285;141069;-92
2023/08/25 03:46:45;;;;;;;15.70;10.30;;;;;;;18.81;98.61;99988.88;215935;1286;139075;-92
2023/08/25 03:51:47;;;;;;;15.20;10.70;;;;;;;18.77;98.76;99984.86;215454;1285;140708;-92
2023/08/25 03:56:49;;;;;;;16.20;10.10;;;;;;;18.74;99.19;99984.23;216249;1286;97913;-91
2023/08/25 04:01:49;;;;;;;16.30;10.80;;;;;;;18.71;99.43;99980.25;215692;1286;141061;-91
2023/08/25 04:06:50;;;;;;;16.60;10.30;;;;;;;18.69;99.57;99976.51;217281;1288;137625;-91
2023/08/25 04:11:54;;;;;;;17.30;10.80;;;;;;;18.69;99.62;99978.18;215741;1285;141090;-89
2023/08/25 04:16:55;;;;;;;16.40;11.10;;;;;;;18.69;99.61;99979.52;216160;1288;139357;-88
2023/08/25 04:21:56;;;;;;;16.80;11.80;;;;;;;18.68;99.66;99974.38;215433;1285;140802;-89
2023/08/25 04:26:56;;;;;;;15.60;11.00;;;;;;;18.67;99.80;99973.52;216199;1286;97880;-90
2023/08/25 04:31:57;;;;;;;14.70;10.50;;;;;;;18.63;99.98;99969.82;215814;1285;140561;-89
2023/08/25 04:36:57;;;;;;;15.60;10.40;;;;;;;18.62;100.00;99967.69;216271;1285;138729;-89
2023/08/25 04:41:58;;;;;;;17.10;11.10;;;;;;;18.61;100.00;99960.48;215472;1285;141572;-89
2023/08/25 04:46:58;;;;;;;17.50;11.30;;;;;;;18.64;100.00;99958.34;215979;1285;139065;-86
2023/08/25 04:51:59;;;;;;;15.90;11.70;;;;;;;18.65;100.00;99953.13;215655;1286;141225;-88
2023/08/25 04:57:00;;;;;;;19.40;12.30;;;;;;;18.64;100.00;99944.38;216177;1285;97845;-85
2023/08/25 05:02:00;;;;;;;19.30;12.20;;;;;;;18.65;100.00;99949.69;215513;1285;141367;-88
2023/08/25 05:07:06;;;;;;;19.60;13.90;;;;;;;18.67;100.00;99942.70;215929;1286;138822;-87
2023/08/25 05:12:07;;;;;;;25.30;15.20;;;;;;;18.67;100.00;99936.56;215942;1286;140156;-87
2023/08/25 05:17:26;;;;;;;24.70;15.20;;;;;;;18.71;100.00;99930.95;215961;1286;139231;-88
2023/08/25 05:22:27;;;;;;;22.70;15.60;;;;;;;18.74;100.00;99914.85;215547;1285;140832;-86
2023/08/25 05:27:48;;;;;;;20.80;14.20;;;;;;;18.78;100.00;99892.35;216064;1286;139030;-87
2023/08/25 05:32:48;;;;;;;22.60;13.60;;;;;;;18.82;100.00;99883.30;215614;1285;139751;-88
2023/08/25 05:37:50;;;;;;;20.90;13.10;;;;;;;18.86;100.00;99864.45;215938;1285;138858;-85
2023/08/25 05:42:51;;;;;;;21.30;15.20;;;;;;;18.91;100.00;99850.66;215618;1286;142101;-87
2023/08/25 05:47:52;;;;;;;20.30;14.70;;;;;;;18.95;100.00;99843.92;216101;1286;139155;-88
2023/08/25 05:52:53;;;;;;;22.10;14.70;;;;;;;19.01;100.00;99851.23;216280;1285;139679;-86
2023/08/25 05:57:53;;;;;;;19.50;14.40;;;;;;;19.07;100.00;99851.98;216145;1286;139588;-86
2023/08/25 06:02:54;;;;;;;24.10;14.80;;;;;;;19.15;100.00;99845.73;215680;1286;140216;-86
2023/08/25 06:07:55;;;;;;;23.70;15.40;;;;;;;19.25;100.00;99840.90;215926;1285;139029;-86
2023/08/25 06:12:55;;;;;;;21.30;14.90;;;;;;;19.33;100.00;99835.20;215514;1285;141982;-86
2023/08/25 06:17:56;;;;;;;19.60;14.50;;;;;;;19.43;100.00;99838.53;215838;1286;139059;-87
2023/08/25 06:22:57;;;;;;;20.50;15.20;;;;;;;19.55;100.00;99838.13;215477;1286;141863;-85
2023/08/25 06:27:59;;;;;;;21.40;14.80;;;;;;;19.66;100.00;99840.11;215656;1285;139255;-85
2023/08/25 06:33:00;;;;;;;22.80;16.20;;;;;;;19.79;100.00;99850.91;215079;1285;141207;-86
2023/08/25 06:38:03;;;;;;;23.10;15.10;;;;;;;19.97;100.00;99862.15;215850;1288;139103;-85
2023/08/25 06:43:04;;;;;;;26.30;15.60;;;;;;;20.16;100.00;99859.57;215702;1285;141636;-87
2023/08/25 06:48:09;;;;;;;22.90;15.50;;;;;;;20.29;100.00;99868.42;216113;1285;139525;-86
2023/08/25 06:53:10;;;;;;;25.10;14.90;;;;;;;20.43;100.00;99873.72;215304;1286;141517;-85
2023/08/25 06:58:11;;;;;;;22.00;13.70;;;;;;;20.58;100.00;99871.70;215958;1286;139091;-84
2023/08/25 07:03:11;;;;;;;23.40;14.00;;;;;;;20.73;99.99;99868.54;215649;1286;141600;-87
2023/08/25 07:08:12;;;;;;;21.40;14.80;;;;;;;20.85;99.27;99861.29;216010;1285;139223;-85
2023/08/25 07:13:12;;;;;;;28.00;14.20;;;;;;;20.97;98.12;99860.32;215427;1285;140657;-89
2023/08/25 07:18:13;;;;;;;21.30;13.10;;;;;;;21.12;97.30;99845.98;216719;1285;138971;-84
2023/08/25 07:23:25;;;;;;;18.60;14.00;;;;;;;21.28;96.07;99838.36;216127;1288;139589;-86
2023/08/25 07:28:25;;;;;;;19.80;13.40;;;;;;;21.41;95.66;99832.73;215614;1286;139740;-86
2023/08/25 07:33:26;;;;;;;20.40;12.90;;;;;;;21.51;94.83;99832.09;215308;1288;140455;-86
2023/08/25 07:38:26;;;;;;;19.30;12.20;;;;;;;21.62;94.69;99838.98;216066;1288;99371;-85
2023/08/25 07:43:27;;;;;;;18.20;12.00;;;;;;;21.75;94.50;99838.17;215573;1286;140712;-85
2023/08/25 07:48:27;;;;;;;19.50;12.10;;;;;;;21.89;93.76;99830.77;215800;1289;139163;-87
2023/08/25 07:53:27;;;;;;;16.40;10.70;;;;;;;22.05;93.09;99832.93;214976;1288;141386;-85
2023/08/25 07:58:28;;;;;;;19.30;12.40;;;;;;;22.23;93.02;99821.55;215779;1288;139289;-85
2023/08/25 08:03:32;;;;;;;17.50;12.40;;;;;;;22.41;92.11;99818.12;215606;1286;139924;-85
2023/08/25 08:08:33;;;;;;;20.90;12.50;;;;;;;22.65;92.11;99814.66;215858;1286;104792;-84
2023/08/25 08:13:34;;;;;;;20.60;11.70;;;;;;;22.91;91.38;99809.05;215617;1288;142554;-86
2023/08/25 08:18:34;;;;;;;18.40;12.20;;;;;;;23.18;90.13;99811.91;216092;1288;139094;-85
2023/08/25 08:23:35;;;;;;;21.00;12.00;;;;;;;23.43;89.98;99809.89;215112;1291;141376;-85
2023/08/25 08:28:35;;;;;;;16.90;11.30;;;;;;;23.83;90.55;99809.63;215858;1289;140265;-84
2023/08/25 08:33:37;;;;;;;18.40;10.60;;;;;;;24.35;89.69;99807.98;215457;1287;141064;-84
2023/08/25 08:38:50;;;;;;;16.00;8.90;;;;;;;24.96;87.48;99809.69;216021;1291;105957;-84
2023/08/25 08:44:10;;;;;;;16.10;9.90;;;;;;;25.80;85.56;99808.80;216008;1285;143210;-85
2023/08/25 08:49:12;;;;;;;16.20;9.60;;;;;;;26.61;84.17;99807.94;215559;1288;141076;-86
2023/08/25 08:54:12;;;;;;;16.80;8.50;;;;;;;27.32;80.26;99803.92;215523;1290;138674;-85
2023/08/25 08:59:13;;;;;;;13.90;9.20;;;;;;;28.25;80.27;99805.83;215574;1288;140336;-84
2023/08/25 09:04:19;;;;;;;16.60;8.60;;;;;;;29.23;76.19;99814.83;215829;1290;138796;-84
2023/08/25 09:09:21;;;;;;;18.90;10.40;;;;;;;30.01;72.34;99813.40;215784;1288;143950;-85
2023/08/25 09:14:24;;;;;;;23.80;9.70;;;;;;;30.77;69.26;99817.43;215745;1286;139168;-86
2023/08/25 09:19:29;;;;;;;18.80;10.00;;;;;;;31.49;65.64;99824.06;215632;1286;140517;-86
2023/08/25 09:24:30;;;;;;;19.20;10.30;;;;;;;31.87;63.59;99824.67;216077;1286;138370;-84
2023/08/25 09:29:41;;;;;;;16.60;9.90;;;;;;;32.50;62.42;99824.84;215769;1286;139899;-85
2023/08/25 09:34:42;;;;;;;13.60;8.20;;;;;;;33.02;61.02;99832.25;217041;1288;138071;-84
2023/08/25 09:39:43;;;;;;;16.60;9.80;;;;;;;33.58;59.55;99844.98;215729;1285;141017;-85
2023/08/25 09:44:45;;;;;;;15.70;8.70;;;;;;;34.23;58.10;99846.02;216270;1286;98045;-84
2023/08/25 09:49:46;;;;;;;14.20;9.10;;;;;;;34.74;54.30;99832.52;215581;1285;139878;-84
2023/08/25 09:54:48;;;;;;;13.70;8.80;;;;;;;34.78;52.76;99838.14;216056;1286;137847;-86
2023/08/25 09:59:48;;;;;;;11.50;9.00;;;;;;;34.90;51.85;99837.27;215803;1286;141854;-85
2023/08/25 10:04:49;;;;;;;14.20;9.60;;;;;;;34.89;51.26;99836.19;216104;1286;138244;-84
2023/08/25 10:09:49;;;;;;;13.70;8.70;;;;;;;34.94;50.98;99833.71;215825;1286;142169;-85
2023/08/25 10:14:52;;;;;;;12.30;9.00;;;;;;;34.77;49.13;99818.77;216442;1286;97940;-85
2023/08/25 10:19:57;;;;;;;10.90;8.10;;;;;;;34.73;48.22;99813.48;215578;1285;140794;-85
2023/08/25 10:25:03;;;;;;;14.70;8.80;;;;;;;34.80;48.06;99818.43;216071;1286;138110;-86
2023/08/25 10:30:06;;;;;;;14.30;9.50;;;;;;;34.97;48.04;99830.21;215782;1286;139246;-83
2023/08/25 10:35:07;;;;;;;13.90;9.70;;;;;;;35.05;47.83;99837.65;216360;1285;138197;-84
2023/08/25 10:40:11;;;;;;;13.10;9.40;;;;;;;35.47;48.56;99831.88;215712;1286;140950;-84
2023/08/25 10:45:12;;;;;;;12.70;8.30;;;;;;;35.63;46.40;99826.06;216336;1288;99290;-86
2023/08/25 10:50:19;;;;;;;10.90;6.90;;;;;;;35.42;44.88;99825.79;215506;1286;141505;-87
2023/08/25 10:55:30;;;;;;;12.30;7.50;;;;;;;35.43;44.75;99824.19;216135;1288;137821;-84
2023/08/25 11:00:33;;;;;;;10.70;6.90;;;;;;;35.72;45.67;99815.95;215312;1288;231938;-85
2023/08/25 11:05:42;;;;;;;13.40;7.20;;;;;;;36.06;44.40;99820.38;216234;1285;137996;-85
2023/08/25 11:10:42;;;;;;;12.30;8.10;;;;;;;36.06;43.87;99825.95;215814;1286;139684;-85
2023/08/25 11:15:43;;;;;;;12.60;8.30;;;;;;;36.02;43.60;99827.98;216540;1286;138483;-86
2023/08/25 11:20:46;;;;;;;11.60;7.20;;;;;;;35.85;43.89;99829.45;215866;1286;141573;-85
2023/08/25 11:25:47;;;;;;;13.20;7.60;;;;;;;35.95;44.30;99825.66;216284;1286;137857;-89
2023/08/25 11:30:48;;;;;;;11.00;7.40;;;;;;;35.78;43.20;99827.62;215506;1286;140367;-87
2023/08/25 11:35:48;;;;;;;13.50;7.80;;;;;;;35.69;43.85;99830.38;215787;1288;138155;-86
2023/08/25 11:40:53;;;;;;;13.30;7.70;;;;;;;35.63;44.89;99831.33;215837;1286;140285;-84
2023/08/25 11:45:54;;;;;;;12.50;7.60;;;;;;;35.74;43.96;99830.73;216101;1288;138440;-86
2023/08/25 11:50:55;;;;;;;16.30;7.60;;;;;;;35.64;44.23;99825.56;215877;1285;140246;-85
2023/08/25 11:56:02;;;;;;;13.50;7.30;;;;;;;35.83;44.22;99825.09;216262;1287;137789;-85
2023/08/25 12:01:07;;;;;;;15.30;7.20;;;;;;;35.88;43.85;99820.14;215757;1286;139463;-84
2023/08/25 12:06:10;;;;;;;13.30;7.90;;;;;;;35.96;44.90;99819.38;216240;1286;137995;-85
2023/08/25 12:11:11;;;;;;;15.30;8.30;;;;;;;36.21;44.41;99821.09;215426;1286;139658;-84
2023/08/25 12:16:14;;;;;;;11.00;7.40;;;;;;;36.37;43.27;99833.48;216009;1288;138756;-86
2023/08/25 12:21:16;;;;;;;15.10;8.40;;;;;;;36.09;42.56;99828.70;215847;1290;138900;-82
2023/08/25 12:26:17;;;;;;;13.40;8.00;;;;;;;35.84;42.72;99833.30;216381;1288;138701;-85
2023/08/25 12:31:20;;;;;;;10.60;6.90;;;;;;;35.70;43.23;99834.58;215576;1289;140392;-84
2023/08/25 12:36:21;;;;;;;9.50;7.70;;;;;;;35.69;43.94;99827.70;216069;1286;138681;-85
2023/08/25 12:41:21;;;;;;;10.70;7.10;;;;;;;35.61;43.36;99823.69;215737;1286;140808;-85
2023/08/25 12:46:22;;;;;;;13.20;7.70;;;;;;;35.44;43.15;99821.52;216114;1286;138425;-88
2023/08/25 12:51:22;;;;;;;13.50;7.70;;;;;;;34.98;43.39;99820.48;216215;1286;139521;-83
2023/08/25 12:56:23;;;;;;;14.00;7.50;;;;;;;34.83;44.00;99814.39;216223;1286;137668;-85
2023/08/25 13:01:24;;;;;;;13.20;8.50;;;;;;;34.81;43.97;99808.58;215815;1285;140692;-85
2023/08/25 13:06:24;;;;;;;13.90;8.30;;;;;;;34.74;44.93;99810.95;216373;1286;138305;-87
2023/08/25 13:11:25;;;;;;;15.40;7.70;;;;;;;34.57;44.81;99808.96;215620;1286;141029;-84
2023/08/25 13:16:25;;;;;;;16.90;7.70;;;;;;;34.41;45.33;99810.39;216214;1288;140211;-84
2023/08/25 13:21:26;;;;;;;11.80;7.30;;;;;;;34.52;47.49;99814.58;215617;1286;141056;-84
2023/08/25 13:26:26;;;;;;;13.50;7.80;;;;;;;34.70;47.32;99811.63;216341;1286;97847;-86
2023/08/25 13:31:27;;;;;;;12.70;8.10;;;;;;;34.64;45.24;99814.39;215630;1287;139224;-86
2023/08/25 13:36:27;;;;;;;15.30;8.10;;;;;;;34.35;45.54;99815.52;216101;1286;138069;-85
2023/08/25 13:41:30;;;;;;;12.60;7.00;;;;;;;34.38;45.87;99822.82;215887;1288;140353;-85
2023/08/25 13:46:31;;;;;;;14.80;7.50;;;;;;;34.24;45.61;99825.16;215996;1288;138021;-84
2023/08/25 13:51:31;;;;;;;12.70;7.40;;;;;;;34.16;46.64;99823.10;215464;1289;139757;-84
2023/08/25 13:56:32;;;;;;;14.10;8.50;;;;;;;34.09;46.57;99821.55;216431;1289;98452;-84
2023/08/25 14:01:32;;;;;;;12.80;8.40;;;;;;;33.91;46.06;99821.29;215834;1286;139421;-84
2023/08/25 14:06:32;;;;;;;13.00;7.20;;;;;;;33.71;45.87;99816.78;216313;1286;138948;-84
2023/08/25 14:11:33;;;;;;;15.10;7.30;;;;;;;33.35;46.46;99820.44;215760;1289;140862;-84
2023/08/25 14:16:36;;;;;;;12.20;7.10;;;;;;;33.13;46.38;99820.16;216364;1290;138076;-85
2023/08/25 14:21:37;;;;;;;18.70;7.30;;;;;;;32.90;47.05;99821.11;215691;1288;139283;-84
2023/08/25 14:26:37;;;;;;;12.40;7.90;;;;;;;32.69;47.99;99820.77;216370;1290;97931;-89
2023/08/25 14:31:37;;;;;;;15.80;8.40;;;;;;;32.42;48.53;99813.50;215595;1286;140325;-84
2023/08/25 14:36:38;;;;;;;17.20;9.10;;;;;;;32.21;49.36;99819.33;216235;1286;138527;-85
2023/08/25 14:41:38;;;;;;;13.50;9.40;;;;;;;32.04;49.95;99823.66;215837;1286;141981;-84
2023/08/25 14:46:39;;;;;;;18.10;8.70;;;;;;;31.88;50.28;99813.32;216316;1287;138402;-83
2023/08/25 14:51:41;;;;;;;12.30;8.40;;;;;;;31.78;50.44;99806.27;215710;1286;141442;-83
2023/08/25 14:56:41;;;;;;;12.90;9.20;;;;;;;31.73;50.74;99804.14;216233;1292;97816;-83
2023/08/25 15:01:42;;;;;;;12.60;8.10;;;;;;;31.62;50.57;99800.76;215673;1286;140896;-84
2023/08/25 15:06:42;;;;;;;15.30;8.70;;;;;;;31.53;52.62;99794.98;216012;1286;138532;-83
2023/08/25 15:11:42;;;;;;;11.60;7.60;;;;;;;31.52;54.69;99799.05;215759;1285;139538;-84
2023/08/25 15:16:43;;;;;;;12.30;8.30;;;;;;;31.57;54.70;99807.23;215949;1285;138137;-84
2023/08/25 15:21:44;;;;;;;14.50;8.30;;;;;;;31.58;55.35;99800.23;215767;1289;139834;-85
2023/08/25 15:26:45;;;;;;;16.10;9.80;;;;;;;31.50;54.66;99793.41;216362;1289;97841;-85
2023/08/25 15:31:45;;;;;;;16.70;9.50;;;;;;;31.50;55.78;99802.23;215369;1286;140526;-85
2023/08/25 15:36:46;;;;;;;16.90;8.80;;;;;;;31.42;55.29;99797.27;216045;1289;139839;-85
2023/08/25 15:41:48;;;;;;;25.40;9.50;;;;;;;31.40;55.83;99808.67;215563;1286;141645;-85
2023/08/25 15:46:49;;;;;;;16.20;8.50;;;;;;;31.31;56.15;99813.42;216281;1286;139019;-87
2023/08/25 15:51:50;;;;;;;11.80;8.10;;;;;;;31.15;54.82;99811.36;215815;1290;141392;-85
2023/08/25 15:56:52;;;;;;;14.00;7.60;;;;;;;30.97;54.00;99818.52;216476;1285;98677;-84
2023/08/25 16:01:53;;;;;;;12.50;7.20;;;;;;;30.77;53.17;99822.36;215727;1286;139785;-85
2023/08/25 16:06:54;;;;;;;15.20;8.00;;;;;;;30.59;53.27;99825.17;216068;1289;138580;-86
2023/08/25 16:11:57;;;;;;;12.10;6.80;;;;;;;30.40;53.70;99823.56;215408;1289;139712;-85
2023/08/25 16:16:57;;;;;;;14.90;6.40;;;;;;;30.29;53.42;99821.98;216249;1286;137955;-85
2023/08/25 16:21:57;;;;;;;11.60;6.90;;;;;;;30.17;53.42;99813.48;215710;1286;139429;-85
2023/08/25 16:26:59;;;;;;;12.60;6.70;;;;;;;30.12;53.70;99815.21;216336;1286;97119;-85
2023/08/25 16:32:02;;;;;;;11.00;6.10;;;;;;;30.05;54.25;99810.54;215666;1286;139877;-84
2023/08/25 16:37:04;;;;;;;9.00;5.90;;;;;;;30.01;56.36;99802.73;216286;1285;138486;-84
2023/08/25 16:42:05;;;;;;;11.10;6.40;;;;;;;29.92;57.46;99800.41;216062;1286;141170;-82
2023/08/25 16:47:06;;;;;;;9.70;6.10;;;;;;;29.80;58.27;99786.96;216299;1285;138705;-83
2023/08/25 16:52:07;;;;;;;10.80;7.30;;;;;;;29.66;59.32;99788.84;215694;1286;140792;-84
2023/08/25 16:57:08;;;;;;;11.40;6.80;;;;;;;29.51;59.96;99791.52;216486;1285;98091;-83
2023/08/25 17:02:08;;;;;;;9.00;6.10;;;;;;;29.38;60.34;99783.98;215802;1285;140042;-83
2023/08/25 17:07:09;;;;;;;13.30;6.90;;;;;;;29.19;60.91;99786.87;216248;1286;138901;-83
2023/08/25 17:12:09;;;;;;;12.70;6.70;;;;;;;29.01;61.72;99791.45;215645;1286;143074;-84
2023/08/25 17:17:09;;;;;;;14.20;7.80;;;;;;;28.86;61.70;99796.90;216236;1285;139343;-84
2023/08/25 17:22:09;;;;;;;12.10;7.90;;;;;;;28.69;61.86;99805.00;215664;1288;141507;-85
2023/08/25 17:27:10;;;;;;;13.60;7.30;;;;;;;28.45;63.55;99814.67;216108;1285;97949;-83
2023/08/25 17:32:10;;;;;;;12.90;7.70;;;;;;;28.15;65.78;99814.55;215631;1285;140274;-83
2023/08/25 17:37:12;;;;;;;12.50;8.00;;;;;;;27.92;67.40;99813.31;216002;1285;137892;-84
2023/08/25 17:42:13;;;;;;;12.50;8.20;;;;;;;27.63;68.37;99803.11;215612;1285;140699;-83
2023/08/25 17:47:14;;;;;;;12.30;7.40;;;;;;;27.43;67.97;99796.24;216371;1285;137949;-84
2023/08/25 17:52:14;;;;;;;11.90;8.30;;;;;;;27.24;69.26;99791.05;215721;1285;140278;-84
2023/08/25 17:57:15;;;;;;;15.90;8.10;;;;;;;27.00;70.26;99780.15;216364;1285;97934;-84
2023/08/25 18:02:15;;;;;;;12.00;7.80;;;;;;;26.80;71.15;99783.98;215823;1286;140017;-83
2023/08/25 18:07:16;;;;;;;12.40;8.10;;;;;;;26.71;71.52;99792.73;215995;1286;138942;-84
2023/08/25 18:12:16;;;;;;;14.20;8.80;;;;;;;26.60;72.10;99795.27;215601;1288;139684;-83
2023/08/25 18:17:17;;;;;;;13.30;8.10;;;;;;;26.50;71.60;99803.62;216209;1285;138162;-84
2023/08/25 18:22:17;;;;;;;15.20;8.50;;;;;;;26.38;71.42;99802.19;215634;1285;139991;-84
2023/08/25 18:27:17;;;;;;;17.90;9.90;;;;;;;26.28;71.30;99803.59;215977;1286;97903;-85
2023/08/25 18:32:18;;;;;;;13.40;8.30;;;;;;;26.17;71.74;99796.14;215794;1286;139729;-84
2023/08/25 18:37:22;;;;;;;14.00;7.50;;;;;;;26.04;72.21;99793.09;216027;1286;137795;-85
2023/08/25 18:42:23;;;;;;;13.30;9.00;;;;;;;25.95;73.95;99794.38;215515;1288;140766;-85
2023/08/25 18:47:23;;;;;;;13.80;9.30;;;;;;;25.86;74.20;99794.71;215635;1288;138892;-85
2023/08/25 18:52:24;;;;;;;12.60;9.10;;;;;;;25.78;74.02;99793.19;215209;1289;141818;-85
2023/08/25 18:57:25;;;;;;;14.10;9.90;;;;;;;25.71;74.43;99791.37;216003;1286;98387;-85
2023/08/25 19:02:26;;;;;;;13.30;9.20;;;;;;;25.60;75.91;99776.74;215504;1288;140415;-84
2023/08/25 19:07:28;;;;;;;15.60;9.00;;;;;;;25.51;76.85;99780.77;215928;1286;138618;-84
2023/08/25 19:12:29;;;;;;;13.60;9.70;;;;;;;25.46;77.44;99790.59;215348;1290;141073;-84
2023/08/25 19:17:29;;;;;;;14.80;9.60;;;;;;;25.38;77.88;99787.20;216005;1291;138833;-84
2023/08/25 19:22:30;;;;;;;17.60;11.00;;;;;;;25.31;77.53;99802.85;215501;1286;140961;-85
2023/08/25 19:27:30;;;;;;;17.50;12.00;;;;;;;25.22;77.90;99813.86;216046;1286;138955;-85
2023/08/25 19:32:30;;;;;;;19.10;12.40;;;;;;;25.14;78.86;99819.11;215788;1286;140429;-85
2023/08/25 19:37:34;;;;;;;19.30;12.50;;;;;;;25.05;79.31;99814.63;216103;1286;140115;-86
2023/08/25 19:42:34;;;;;;;20.60;13.10;;;;;;;24.96;79.97;99821.32;215593;1289;140678;-86
2023/08/25 19:47:35;;;;;;;18.80;12.50;;;;;;;24.90;80.69;99832.02;215967;1286;139455;-86
2023/08/25 19:52:35;;;;;;;19.00;12.40;;;;;;;24.84;81.27;99833.46;215243;1286;143941;-85
2023/08/25 19:57:38;;;;;;;16.90;11.90;;;;;;;24.77;81.91;99839.96;215811;1286;139144;-86
2023/08/25 20:02:39;;;;;;;19.80;12.10;;;;;;;24.71;82.22;99837.56;215653;1286;141571;-85
2023/08/25 20:07:40;;;;;;;21.40;12.00;;;;;;;24.66;82.81;99839.92;215952;1287;140195;-86
2023/08/25 20:12:41;;;;;;;18.40;11.70;;;;;;;24.62;83.45;99833.61;215465;1285;141610;-85
2023/08/25 20:17:41;;;;;;;18.50;12.40;;;;;;;24.56;84.10;99845.88;216237;1289;138971;-84
2023/08/25 20:22:42;;;;;;;19.30;12.10;;;;;;;24.52;84.21;99845.95;215815;1286;142887;-86
2023/08/25 20:27:42;;;;;;;15.60;11.10;;;;;;;24.48;84.71;99844.66;216189;1286;138821;-84
2023/08/25 20:32:42;;;;;;;17.40;11.60;;;;;;;24.44;84.70;99847.34;215789;1286;142029;-84
2023/08/25 20:37:43;;;;;;;18.50;11.50;;;;;;;24.40;85.01;99852.08;216093;1286;139483;-85
2023/08/25 20:42:48;;;;;;;16.20;10.50;;;;;;;24.38;85.29;99859.20;215723;1285;142630;-84
2023/08/25 20:47:48;;;;;;;18.70;11.20;;;;;;;24.35;85.36;99866.82;216162;1285;139196;-84
2023/08/25 20:52:49;;;;;;;16.60;11.30;;;;;;;24.31;85.92;99868.08;215665;1285;141096;-84
2023/08/25 20:57:50;;;;;;;16.90;10.30;;;;;;;24.27;86.25;99869.11;216087;1288;139068;-84
2023/08/25 21:02:50;;;;;;;12.00;8.60;;;;;;;24.24;86.16;99864.30;215703;1286;140601;-84
2023/08/25 21:07:50;;;;;;;14.90;9.90;;;;;;;24.20;86.52;99867.36;216046;1286;139372;-85
2023/08/25 21:12:51;;;;;;;14.70;11.30;;;;;;;24.14;87.27;99858.70;215740;1286;142119;-85
2023/08/25 21:17:51;;;;;;;15.60;11.10;;;;;;;24.08;87.39;99864.58;216087;1286;139248;-84
2023/08/25 21:22:52;;;;;;;15.70;10.40;;;;;;;24.06;87.63;99865.40;215741;1285;144006;-84
2023/08/25 21:27:52;;;;;;;17.70;10.10;;;;;;;24.03;88.30;99856.64;216162;1285;140405;-83
2023/08/25 21:32:52;;;;;;;17.60;11.80;;;;;;;24.00;87.95;99855.17;215639;1286;141188;-83
2023/08/25 21:37:53;;;;;;;15.80;10.50;;;;;;;23.98;88.91;99844.15;216010;1288;138925;-84
2023/08/25 21:42:53;;;;;;;16.90;10.80;;;;;;;23.95;88.85;99844.86;215763;1288;141950;-83
2023/08/25 21:47:54;;;;;;;15.00;9.20;;;;;;;23.93;88.88;99841.99;216013;1286;138879;-84
2023/08/25 21:52:54;;;;;;;18.00;11.40;;;;;;;23.90;89.73;99832.42;215753;1288;142201;-83
2023/08/25 21:58:04;;;;;;;15.60;11.20;;;;;;;23.87;90.94;99817.82;216159;1286;138545;-91
2023/08/25 22:03:04;;;;;;;15.20;9.30;;;;;;;23.78;92.38;99787.95;215442;1286;140418;-89
2023/08/25 22:08:06;;;;;;;20.40;8.40;;;;;;;23.67;92.84;99773.75;216253;1285;138676;-89
2023/08/25 22:13:07;;;;;;;11.90;8.00;;;;;;;23.57;93.59;99764.09;215395;1288;141504;-88
2023/08/25 22:18:07;;;;;;;12.90;7.20;;;;;;;23.44;93.82;99745.30;216049;1285;139154;-87
2023/08/25 22:23:08;;;;;;;15.30;6.60;;;;;;;23.36;92.99;99723.80;215788;1285;141343;-86
2023/08/25 22:28:09;;;;;;;10.80;6.40;;;;;;;23.31;93.25;99726.03;216330;1285;138849;-86
2023/08/25 22:33:10;;;;;;;9.50;6.20;;;;;;;23.25;93.19;99727.24;215739;1286;140681;-86
2023/08/25 22:38:10;;;;;;;10.30;6.10;;;;;;;23.18;93.84;99725.30;216353;1285;138391;-85
2023/08/25 22:43:11;;;;;;;9.80;6.30;;;;;;;23.07;94.19;99719.17;215482;1288;141612;-86
2023/08/25 22:48:11;;;;;;;10.50;5.80;;;;;;;22.97;94.13;99714.88;216484;1286;138551;-86